createdAt,value
2019-03-06T00:00:44.339Z,79.60
2019-03-06T00:03:15.333Z,79.60
2019-03-06T00:05:46.109Z,79.50
2019-03-06T00:08:16.844Z,79.50
2019-03-06T00:10:47.705Z,79.40
2019-03-06T00:13:18.800Z,79.40
2019-03-06T00:15:50.092Z,79.30
2019-03-06T00:18:20.780Z,79.20
2019-03-06T00:20:51.501Z,79.20
2019-03-06T00:23:22.452Z,79.10
2019-03-06T00:25:53.224Z,79.00
2019-03-06T00:28:23.968Z,78.30
2019-03-06T00:30:54.860Z,79.00
2019-03-06T00:33:25.735Z,78.90
2019-03-06T00:35:57.871Z,78.70
2019-03-06T00:38:28.870Z,78.50
2019-03-06T00:41:00.949Z,78.50
2019-03-06T00:47:00.412Z,78.50
2019-03-06T00:49:31.455Z,78.70
2019-03-06T00:52:02.641Z,79.00
2019-03-06T00:54:33.420Z,79.30
2019-03-06T00:57:04.629Z,79.70
2019-03-06T00:59:35.448Z,79.70
2019-03-06T01:02:06.493Z,79.50
2019-03-06T01:04:37.396Z,79.00
2019-03-06T01:07:08.163Z,78.60
2019-03-06T01:09:38.905Z,78.00
2019-03-06T01:12:09.812Z,78.10
2019-03-06T01:14:40.988Z,78.80
2019-03-06T01:17:11.885Z,79.10
2019-03-06T01:19:42.882Z,78.90
2019-03-06T01:22:13.844Z,78.50
2019-03-06T01:24:44.745Z,78.40
2019-03-06T01:27:15.490Z,78.00
2019-03-06T01:29:46.348Z,77.80
2019-03-06T01:32:17.133Z,78.00
2019-03-06T01:34:49.613Z,78.20
2019-03-06T01:37:25.248Z,78.10
2019-03-06T01:40:04.844Z,77.30
2019-03-06T01:45:18.499Z,76.70
2019-03-06T01:47:49.394Z,75.80
2019-03-06T01:50:20.174Z,75.50
2019-03-06T01:52:51.002Z,75.20
2019-03-06T01:55:21.916Z,74.20
2019-03-06T01:57:53.057Z,73.90
2019-03-06T02:00:24.030Z,74.30
2019-03-06T02:02:55.740Z,74.50
2019-03-06T02:05:46.729Z,73.90
2019-03-06T02:08:18.272Z,73.10
2019-03-06T02:10:49.673Z,73.00
2019-03-06T02:13:35.717Z,72.70
2019-03-06T02:16:07.018Z,72.40
2019-03-06T02:18:37.797Z,72.30
2019-03-06T02:21:27.782Z,72.50
2019-03-06T02:23:58.573Z,72.10
2019-03-06T02:26:29.721Z,71.70
2019-03-06T02:29:00.621Z,71.90
2019-03-06T02:31:31.435Z,71.70
2019-03-06T02:34:02.286Z,72.00
2019-03-06T02:36:33.229Z,72.10
2019-03-06T02:39:04.151Z,71.00
2019-03-06T02:41:34.881Z,69.80
2019-03-06T02:44:05.796Z,69.90
2019-03-06T02:46:36.671Z,68.80
2019-03-06T02:49:07.611Z,68.20
2019-03-06T02:51:38.509Z,67.80
2019-03-06T02:55:01.315Z,67.80
2019-03-06T02:57:32.295Z,67.60
2019-03-06T03:00:04.893Z,68.10
2019-03-06T03:02:37.146Z,66.60
2019-03-06T03:05:11.788Z,65.40
2019-03-06T03:07:42.666Z,64.90
2019-03-06T03:10:13.772Z,65.10
2019-03-06T03:12:44.801Z,64.60
2019-03-06T03:15:15.883Z,64.10
2019-03-06T03:17:47.004Z,61.90
2019-03-06T03:20:18.297Z,59.20
2019-03-06T03:22:48.990Z,57.10
2019-03-06T03:25:19.870Z,56.90
2019-03-06T03:27:50.551Z,58.00
2019-03-06T03:30:21.540Z,58.00
2019-03-06T03:32:52.537Z,58.70
2019-03-06T03:35:23.406Z,57.20
2019-03-06T03:37:54.154Z,57.10
2019-03-06T03:40:25.058Z,57.40
2019-03-06T03:42:56.012Z,56.10
2019-03-06T03:45:26.761Z,53.70
2019-03-06T03:47:57.667Z,52.50
2019-03-06T03:50:28.644Z,52.10
2019-03-06T03:52:59.543Z,52.00
2019-03-06T03:55:30.490Z,52.60
2019-03-06T03:58:01.265Z,51.50
2019-03-06T04:00:32.097Z,52.40
2019-03-06T04:03:03.394Z,52.30
2019-03-06T04:05:34.253Z,53.10
2019-03-06T04:08:04.990Z,56.90
2019-03-06T04:10:35.888Z,57.70
2019-03-06T04:13:07.022Z,58.70
2019-03-06T04:16:18.092Z,57.40
2019-03-06T04:18:50.469Z,57.40
2019-03-06T04:21:39.964Z,58.20
2019-03-06T04:24:10.991Z,58.30
2019-03-06T04:26:41.928Z,58.00
2019-03-06T04:29:13.175Z,58.40
2019-03-06T04:31:44.001Z,57.60
2019-03-06T04:34:14.776Z,57.70
2019-03-06T04:36:45.814Z,57.20
2019-03-06T04:39:16.735Z,56.50
2019-03-06T04:41:47.412Z,56.30
2019-03-06T04:44:18.237Z,55.60
2019-03-06T04:46:49.139Z,54.80
2019-03-06T04:49:20.089Z,55.30
2019-03-06T04:51:50.983Z,55.10
2019-03-06T04:54:21.749Z,54.30
2019-03-06T04:56:52.586Z,53.80
2019-03-06T04:59:23.889Z,54.20
2019-03-06T05:01:55.670Z,54.40
2019-03-06T05:04:29.482Z,53.50
2019-03-06T05:07:00.534Z,53.30
2019-03-06T05:09:31.439Z,52.80
2019-03-06T05:12:03.538Z,52.90
2019-03-06T05:14:34.426Z,53.10
2019-03-06T05:17:15.641Z,53.20
2019-03-06T05:19:47.135Z,52.60
2019-03-06T05:22:17.987Z,52.60
2019-03-06T05:24:48.978Z,52.50
2019-03-06T05:27:20.004Z,52.20
2019-03-06T05:29:50.912Z,52.40
2019-03-06T05:32:32.979Z,52.00
2019-03-06T05:35:12.814Z,52.20
2019-03-06T05:38:12.667Z,51.80
2019-03-06T05:40:43.489Z,52.20
2019-03-06T05:44:15.388Z,50.50
2019-03-06T05:46:47.400Z,50.10
2019-03-06T05:49:18.689Z,50.80
2019-03-06T05:51:49.744Z,49.80
2019-03-06T05:54:21.182Z,48.00
2019-03-06T05:56:52.319Z,48.00
2019-03-06T05:59:23.326Z,47.80
2019-03-06T06:01:54.494Z,48.60
2019-03-06T06:04:25.565Z,49.30
2019-03-06T06:06:56.948Z,47.30
2019-03-06T06:09:30.922Z,47.30
2019-03-06T06:12:02.077Z,47.40
2019-03-06T06:14:33.909Z,46.30
2019-03-06T06:17:05.051Z,47.20
2019-03-06T06:19:36.257Z,46.00
2019-03-06T06:22:18.729Z,46.70
2019-03-06T06:24:49.606Z,46.90
2019-03-06T06:27:20.673Z,46.30
2019-03-06T06:29:51.529Z,45.40
2019-03-06T06:32:22.421Z,44.40
2019-03-06T06:34:53.485Z,45.00
2019-03-06T06:37:26.921Z,46.40
2019-03-06T06:39:58.383Z,46.30
2019-03-06T06:42:29.426Z,45.80
2019-03-06T06:45:00.491Z,46.60
2019-03-06T06:47:32.644Z,46.10
2019-03-06T06:50:03.409Z,43.30
2019-03-06T06:52:38.373Z,43.40
2019-03-06T06:55:29.756Z,43.50
2019-03-06T06:58:20.084Z,43.50
2019-03-06T07:01:00.602Z,41.30
2019-03-06T07:04:07.270Z,40.90
2019-03-06T07:06:39.366Z,43.00
2019-03-06T07:09:13.368Z,41.70
2019-03-06T07:11:54.568Z,41.90
2019-03-06T07:14:27.117Z,41.40
2019-03-06T07:17:14.745Z,40.10
2019-03-06T07:19:47.417Z,40.70
2019-03-06T07:22:26.242Z,40.80
2019-03-06T07:25:11.607Z,39.20
2019-03-06T07:27:43.861Z,40.00
2019-03-06T07:30:32.960Z,41.20
2019-03-06T07:33:05.183Z,40.40
2019-03-06T07:36:09.656Z,41.50
2019-03-06T07:38:40.625Z,41.80
2019-03-06T07:41:19.254Z,43.60
2019-03-06T07:47:38.767Z,43.40
2019-03-06T07:50:28.298Z,44.70
2019-03-06T07:53:49.310Z,44.60
2019-03-06T07:56:22.810Z,44.40
2019-03-06T07:58:58.972Z,44.60
2019-03-06T08:01:34.829Z,44.10
2019-03-06T08:04:25.864Z,45.20
2019-03-06T08:07:00.854Z,45.40
2019-03-06T08:09:31.899Z,45.40
2019-03-06T08:12:07.364Z,46.30
2019-03-06T08:14:52.437Z,45.30
2019-03-06T08:17:30.954Z,45.00
2019-03-06T08:20:06.400Z,45.00
2019-03-06T08:22:40.200Z,46.30
2019-03-06T08:25:29.682Z,45.70
2019-03-06T08:28:00.540Z,45.90
2019-03-06T08:30:32.696Z,45.20
2019-03-06T08:33:03.938Z,44.20
2019-03-06T08:35:34.788Z,45.00
2019-03-06T08:38:05.725Z,45.50
2019-03-06T08:41:30.010Z,44.80
2019-03-06T08:44:02.325Z,45.50
2019-03-06T08:46:50.087Z,46.20
2019-03-06T08:49:40.922Z,46.20
2019-03-06T08:52:19.747Z,45.80
2019-03-06T08:54:52.532Z,46.00
2019-03-06T08:57:25.109Z,45.90
2019-03-06T09:00:00.344Z,45.90
2019-03-06T09:02:52.283Z,46.90
2019-03-06T09:05:27.188Z,46.30
2019-03-06T09:08:11.803Z,47.00
2019-03-06T09:10:44.231Z,47.30
2019-03-06T09:13:16.970Z,46.80
2019-03-06T09:15:52.138Z,47.40
2019-03-06T09:18:24.571Z,46.60
2019-03-06T09:20:57.004Z,47.20
2019-03-06T09:23:38.299Z,46.80
2019-03-06T09:26:23.222Z,47.70
2019-03-06T09:29:01.247Z,48.40
2019-03-06T09:31:38.984Z,48.70
2019-03-06T09:34:28.234Z,49.50
2019-03-06T09:37:06.719Z,50.50
2019-03-06T09:39:45.906Z,51.20
2019-03-06T09:42:27.287Z,51.60
2019-03-06T09:45:02.734Z,52.40
2019-03-06T09:47:39.407Z,52.90
2019-03-06T09:50:19.310Z,54.20
2019-03-06T09:52:51.736Z,53.60
2019-03-06T09:55:52.383Z,53.80
2019-03-06T09:58:24.847Z,53.60
2019-03-06T10:01:23.437Z,54.30
2019-03-06T10:04:01.748Z,55.30
2019-03-06T10:06:46.397Z,56.80
2019-03-06T10:09:22.191Z,56.10
2019-03-06T10:12:12.983Z,57.40
2019-03-06T10:14:52.102Z,57.40
2019-03-06T10:17:43.012Z,57.90
2019-03-06T10:20:25.042Z,57.30
2019-03-06T10:22:54.659Z,58.20
2019-03-06T10:25:30.075Z,59.20
2019-03-06T10:28:06.024Z,59.60
2019-03-06T10:30:29.818Z,59.10
2019-03-06T10:33:00.769Z,58.90
2019-03-06T10:35:32.178Z,59.20
2019-03-06T10:38:03.540Z,59.70
2019-03-06T10:40:34.369Z,60.20
2019-03-06T10:43:05.843Z,60.80
2019-03-06T10:45:41.879Z,61.30
2019-03-06T10:48:09.163Z,61.80
2019-03-06T10:50:40.297Z,62.00
2019-03-06T10:53:11.174Z,61.90
2019-03-06T10:55:42.087Z,63.10
2019-03-06T10:58:32.360Z,63.50
2019-03-06T11:01:03.288Z,63.50
2019-03-06T11:03:35.672Z,64.00
2019-03-06T11:06:07.049Z,63.30
2019-03-06T11:08:38.181Z,63.10
2019-03-06T11:11:09.825Z,63.40
2019-03-06T11:14:09.755Z,62.20
2019-03-06T11:16:41.174Z,61.00
2019-03-06T11:19:12.673Z,61.40
2019-03-06T11:21:43.520Z,62.10
2019-03-06T11:24:14.726Z,61.90
2019-03-06T11:26:45.779Z,61.50
2019-03-06T11:29:19.245Z,62.20
2019-03-06T11:31:49.591Z,62.80
2019-03-06T11:34:20.685Z,63.50
2019-03-06T11:36:51.882Z,63.60
2019-03-06T11:39:23.394Z,63.40
2019-03-06T11:41:54.415Z,63.10
2019-03-06T11:44:25.424Z,63.40
2019-03-06T11:46:56.474Z,63.90
2019-03-06T11:49:27.341Z,64.40
2019-03-06T11:51:59.507Z,64.60
2019-03-06T11:54:30.570Z,64.50
2019-03-06T11:57:01.466Z,64.80
2019-03-06T11:59:32.303Z,66.20
2019-03-06T12:02:03.415Z,66.10
2019-03-06T12:04:53.331Z,66.90
2019-03-06T12:07:24.331Z,67.80
2019-03-06T12:09:55.202Z,69.10
2019-03-06T12:12:26.035Z,69.70
2019-03-06T12:14:57.300Z,70.50
2019-03-06T12:17:28.470Z,71.00
2019-03-06T12:20:07.536Z,71.50
2019-03-06T12:22:31.761Z,71.70
2019-03-06T12:25:02.803Z,71.90
2019-03-06T12:27:33.621Z,72.10
2019-03-06T12:30:05.076Z,72.70
2019-03-06T12:32:35.947Z,73.10
2019-03-06T12:35:08.081Z,73.50
2019-03-06T12:37:46.672Z,73.70
2019-03-06T12:40:16.750Z,74.00
2019-03-06T12:42:48.025Z,74.00
2019-03-06T12:45:19.604Z,74.10
2019-03-06T12:47:59.592Z,74.40
2019-03-06T12:50:35.891Z,74.40
2019-03-06T12:53:06.961Z,74.80
2019-03-06T12:55:37.876Z,75.10
2019-03-06T12:58:09.113Z,75.40
2019-03-06T13:00:40.539Z,75.50
2019-03-06T13:03:11.403Z,75.80
2019-03-06T13:05:42.522Z,75.80
2019-03-06T13:08:19.729Z,75.90
2019-03-06T13:10:45.632Z,76.10
2019-03-06T13:13:16.707Z,76.10
2019-03-06T13:15:47.602Z,76.20
2019-03-06T13:18:19.067Z,76.00
2019-03-06T13:20:50.316Z,75.90
2019-03-06T13:23:28.733Z,75.90
2019-03-06T13:26:18.434Z,75.80
2019-03-06T13:28:57.043Z,75.80
2019-03-06T13:31:22.201Z,76.30
2019-03-06T13:37:34.775Z,76.60
2019-03-06T13:40:06.712Z,76.90
2019-03-06T13:43:32.873Z,77.40
2019-03-06T13:46:03.713Z,77.10
2019-03-06T13:48:34.586Z,77.40
2019-03-06T13:51:06.104Z,77.70
2019-03-06T13:53:39.235Z,78.10
2019-03-06T13:56:10.872Z,77.80
2019-03-06T13:58:41.718Z,77.70
2019-03-06T14:01:13.601Z,78.00
2019-03-06T14:07:59.984Z,78.80
2019-03-06T14:10:31.033Z,79.10
2019-03-06T14:13:01.901Z,78.80
2019-03-06T14:15:32.845Z,78.80
2019-03-06T14:18:03.894Z,79.10
2019-03-06T14:20:35.140Z,79.40
2019-03-06T14:23:06.235Z,79.30
2019-03-06T14:25:37.361Z,79.20
2019-03-06T14:28:08.267Z,79.10
2019-03-06T14:30:40.848Z,79.30
2019-03-06T14:33:12.316Z,79.40
2019-03-06T14:36:02.192Z,79.80
2019-03-06T14:38:33.377Z,80.20
2019-03-06T14:41:05.230Z,80.50
2019-03-06T14:44:07.527Z,80.30
2019-03-06T14:46:38.449Z,80.10
2019-03-06T14:49:09.478Z,80.20
2019-03-06T14:51:40.520Z,80.30
2019-03-06T14:54:12.715Z,81.30
2019-03-06T14:56:43.790Z,80.80
2019-03-06T14:59:14.659Z,80.70
2019-03-06T15:01:46.992Z,80.70
2019-03-06T15:04:18.075Z,80.50
2019-03-06T15:07:12.400Z,80.40
2019-03-06T15:09:46.079Z,80.50
2019-03-06T15:12:16.907Z,80.60
2019-03-06T15:14:47.979Z,80.50
2019-03-06T15:17:19.103Z,80.40
2019-03-06T15:19:55.685Z,80.40
2019-03-06T15:22:27.086Z,80.60
2019-03-06T15:24:57.956Z,80.40
2019-03-06T15:27:29.039Z,80.60
2019-03-06T15:30:00.361Z,80.70
2019-03-06T15:32:31.335Z,80.70
2019-03-06T15:35:11.970Z,80.70
2019-03-06T15:37:43.037Z,80.90
2019-03-06T15:40:17.210Z,80.90
2019-03-06T15:43:08.571Z,80.80
2019-03-06T15:45:40.111Z,80.80
2019-03-06T15:48:10.999Z,80.70
2019-03-06T15:50:41.894Z,80.60
2019-03-06T15:53:31.387Z,80.70
2019-03-06T15:56:02.423Z,81.10
2019-03-06T15:58:33.467Z,80.80
2019-03-06T16:01:04.448Z,80.60
2019-03-06T16:03:35.468Z,80.60
2019-03-06T16:06:06.386Z,80.80
2019-03-06T16:08:37.406Z,80.70
2019-03-06T16:11:09.590Z,80.50
2019-03-06T16:13:40.698Z,80.40
2019-03-06T16:16:12.903Z,80.50
2019-03-06T16:18:43.887Z,80.80
2019-03-06T16:21:15.510Z,81.00
2019-03-06T16:26:37.019Z,81.10
2019-03-06T16:29:08.115Z,80.80
2019-03-06T16:31:38.929Z,80.80
2019-03-06T16:37:57.518Z,81.10
2019-03-06T16:40:30.448Z,81.00
2019-03-06T16:43:01.362Z,81.20
2019-03-06T16:45:32.690Z,81.30
2019-03-06T16:48:04.143Z,81.30
2019-03-06T16:50:35.205Z,81.40
2019-03-06T16:53:06.466Z,81.70
2019-03-06T16:55:37.565Z,81.70
2019-03-06T16:58:08.438Z,82.00
2019-03-06T17:00:39.592Z,82.00
2019-03-06T17:03:11.775Z,81.80
2019-03-06T17:05:43.025Z,81.90
2019-03-06T17:08:13.959Z,82.20
2019-03-06T17:10:45.158Z,82.20
2019-03-06T17:13:15.986Z,82.20
2019-03-06T17:15:46.966Z,82.60
2019-03-06T17:18:18.149Z,82.50
2019-03-06T17:20:49.237Z,82.50
2019-03-06T17:23:20.279Z,82.50
2019-03-06T17:25:51.634Z,82.40
2019-03-06T17:28:22.458Z,82.60
2019-03-06T17:30:53.714Z,82.70
2019-03-06T17:33:25.562Z,82.60
2019-03-06T17:35:56.442Z,82.50
2019-03-06T17:38:27.460Z,82.60
2019-03-06T17:40:58.973Z,82.50
2019-03-06T17:43:30.178Z,82.70
2019-03-06T17:46:01.018Z,82.90
2019-03-06T17:48:32.604Z,82.80
2019-03-06T17:51:03.530Z,83.00
2019-03-06T17:53:34.465Z,83.30
2019-03-06T17:56:05.747Z,83.00
2019-03-06T17:58:36.622Z,83.20
2019-03-06T18:01:08.957Z,83.30
2019-03-06T18:03:41.578Z,83.20
2019-03-06T18:06:12.411Z,83.20
2019-03-06T18:08:43.581Z,83.40
2019-03-06T18:11:14.772Z,83.50
2019-03-06T18:13:45.670Z,83.20
2019-03-06T18:16:16.702Z,83.10
2019-03-06T18:18:47.827Z,83.20
2019-03-06T18:21:18.686Z,83.20
2019-03-06T18:23:49.525Z,83.20
2019-03-06T18:26:20.538Z,83.10
2019-03-06T18:28:51.900Z,83.00
2019-03-06T18:31:22.726Z,83.00
2019-03-06T18:37:36.505Z,82.90
2019-03-06T18:40:10.616Z,82.90
2019-03-06T18:42:42.956Z,82.80
2019-03-06T18:45:19.227Z,82.90
2019-03-06T18:47:51.015Z,82.80
2019-03-06T18:50:23.087Z,82.60
2019-03-06T18:52:54.009Z,82.90
2019-03-06T18:55:24.846Z,82.90
2019-03-06T18:57:55.852Z,82.90
2019-03-06T19:00:30.878Z,83.00
2019-03-06T19:03:01.932Z,82.90
2019-03-06T19:05:32.769Z,83.10
2019-03-06T19:12:09.730Z,82.90
2019-03-06T19:14:42.455Z,83.10
2019-03-06T19:17:13.239Z,83.20
2019-03-06T19:19:44.102Z,83.40
2019-03-06T19:22:15.197Z,83.00
2019-03-06T19:24:46.061Z,83.10
2019-03-06T19:27:16.925Z,84.20
2019-03-06T19:29:48.161Z,83.10
2019-03-06T19:32:19.098Z,83.10
2019-03-06T19:34:50.101Z,83.10
2019-03-06T19:37:20.962Z,82.60
2019-03-06T19:39:51.808Z,82.60
2019-03-06T19:42:22.810Z,82.50
2019-03-06T19:44:53.961Z,82.70
2019-03-06T19:47:24.892Z,82.40
2019-03-06T19:49:56.049Z,82.30
2019-03-06T19:52:26.825Z,82.50
2019-03-06T19:54:57.652Z,82.10
2019-03-06T19:57:28.561Z,82.20
2019-03-06T19:59:59.638Z,82.40
2019-03-06T20:02:30.440Z,82.40
2019-03-06T20:05:01.477Z,82.40
2019-03-06T20:07:32.348Z,82.60
2019-03-06T20:10:04.395Z,82.70
2019-03-06T20:12:35.531Z,82.20
2019-03-06T20:15:08.669Z,82.40
2019-03-06T20:17:39.666Z,82.30
2019-03-06T20:20:12.828Z,82.40
2019-03-06T20:22:43.912Z,82.30
2019-03-06T20:25:14.991Z,82.50
2019-03-06T20:28:06.062Z,82.50
2019-03-06T20:30:37.212Z,82.50
2019-03-06T20:33:07.969Z,82.50
2019-03-06T20:35:39.040Z,82.40
2019-03-06T20:38:09.764Z,82.60
2019-03-06T20:40:40.625Z,82.40
2019-03-06T20:43:11.696Z,82.70
2019-03-06T20:45:42.862Z,83.10
2019-03-06T20:48:13.820Z,82.80
2019-03-06T20:50:44.937Z,82.80
2019-03-06T20:53:16.024Z,83.10
2019-03-06T20:55:46.949Z,83.20
2019-03-06T20:58:18.075Z,83.40
2019-03-06T21:00:48.938Z,83.40
2019-03-06T21:03:19.773Z,83.10
2019-03-06T21:05:50.786Z,83.20
2019-03-06T21:08:21.817Z,83.20
2019-03-06T21:10:52.656Z,83.30
2019-03-06T21:13:23.657Z,83.30
2019-03-06T21:15:54.434Z,83.30
2019-03-06T21:18:27.174Z,83.40
2019-03-06T21:20:58.108Z,83.20
2019-03-06T21:23:33.041Z,83.40
2019-03-06T21:26:04.289Z,83.30
2019-03-06T21:28:35.224Z,83.10
2019-03-06T21:31:06.641Z,83.40
2019-03-06T21:33:37.682Z,83.50
2019-03-06T21:36:08.520Z,83.60
2019-03-06T21:38:39.564Z,83.60
2019-03-06T21:41:10.429Z,83.70
2019-03-06T21:47:10.258Z,83.90
2019-03-06T21:49:41.255Z,83.80
2019-03-06T21:52:12.117Z,83.80
2019-03-06T21:54:42.963Z,83.50
2019-03-06T21:57:13.963Z,83.60
2019-03-06T21:59:45.071Z,83.70
2019-03-06T22:02:15.981Z,83.80
2019-03-06T22:04:47.001Z,84.00
2019-03-06T22:07:17.860Z,83.90
2019-03-06T22:09:48.605Z,84.00
2019-03-06T22:12:19.611Z,84.20
2019-03-06T22:14:50.490Z,84.30
2019-03-06T22:17:21.525Z,84.40
2019-03-06T22:19:52.388Z,84.40
2019-03-06T22:22:23.424Z,84.50
2019-03-06T22:24:54.211Z,84.50
2019-03-06T22:27:25.407Z,84.40
2019-03-06T22:29:56.895Z,84.40
2019-03-06T22:32:28.035Z,84.60
2019-03-06T22:34:59.026Z,84.50
2019-03-06T22:37:29.907Z,84.80
2019-03-06T22:40:00.645Z,84.90
2019-03-06T22:42:31.601Z,85.00
2019-03-06T22:45:22.414Z,84.90
2019-03-06T22:47:53.955Z,85.00
2019-03-06T22:50:24.791Z,85.00
2019-03-06T22:52:55.730Z,85.00
2019-03-06T22:55:26.737Z,85.20
2019-03-06T22:57:57.461Z,85.40
2019-03-06T23:00:33.737Z,85.40
2019-03-06T23:03:04.607Z,85.50
2019-03-06T23:05:37.413Z,85.50
2019-03-06T23:08:08.357Z,85.70
2019-03-06T23:10:39.025Z,85.70
2019-03-06T23:13:09.769Z,85.80
2019-03-06T23:15:40.769Z,85.80
2019-03-06T23:18:11.486Z,85.80
2019-03-06T23:20:42.285Z,85.80
2019-03-06T23:23:13.582Z,85.80
2019-03-06T23:25:44.548Z,85.70
2019-03-06T23:28:15.646Z,85.70
2019-03-06T23:30:51.073Z,85.80
2019-03-06T23:33:34.085Z,85.70
2019-03-06T23:36:05.128Z,85.70
2019-03-06T23:38:36.214Z,85.70
2019-03-06T23:41:07.040Z,85.80
2019-03-06T23:43:37.958Z,85.60
2019-03-06T23:46:14.234Z,85.80
2019-03-06T23:49:37.085Z,85.80
2019-03-06T23:52:09.598Z,85.80
2019-03-06T23:54:40.570Z,85.50
2019-03-06T23:57:11.581Z,85.60
2019-03-06T23:59:42.423Z,85.80
